Perth Airport Weather

Latest weather

Perth Scone (EGPT) Weather updates coming soon.

Below are some surrounding airfields, alternative you can view our webcam below or contact Perth radio operator who can assist.

Dundee Weather - Distance 12nm Track 086'

[Source: ADDS]
METAR
EGPN 091701Z 0918/0921 25009KT 9999 FEW030 TAF
EGPN 091701Z 0918/0921 25009KT 9999 FEW030 =

RAF Leuchars Weather - Distance 17nm Track 103'

[Source: ADDS]
METAR
EGQL 100350Z 27005KT 9999 SKC 14/11 Q1026 RMK BLU =
EGQL 100102Z 1003/1012 25005KT CAVOK PROB30 TEMPO 1008/1012 26015G25KT
TAF
EGQL 100102Z 1003/1012 25005KT CAVOK PROB30 TEMPO 1008/1012 26015G25KT =

Edinburgh Weather - Distance 29nm Track 180'

[Source: ADDS]
METAR
EGPH 100350Z 00000KT 9999 VCFG NSC 10/09 Q1026 =
EGPH 092254Z 1000/1024 25008KT 9999 FEW040 PROB30 1004/1006 4000 BR
TAF
EGPH 092254Z 1000/1024 25008KT 9999 FEW040 PROB30 1004/1006 4000 BR =

Aberdeen Weather - Distance 60nm Track 040'

[Source: ADDS]
METAR
EGPD 100350Z AUTO 21004KT 170V250 9999 NCD 12/09 Q1025 =
EGPD 092254Z 1000/1024 VRB03KT 9999 FEW045 BECMG 1009/1012 26010KT BECMG 1021/1024 VRB03KT
TAF
EGPD 092254Z 1000/1024 VRB03KT 9999 FEW045 BECMG 1009/1012 26010KT BECMG 1021/1024 VRB03KT =

Drone Tour of Perth Airport

Watch a full aerial tour of the Perth Airport runways 15/33, 09/27, 03/21. Follow our based Piper PA28-161 Warrior taking you on a tour of Perth Scone Aerodrome. The footage is captured in stunning 4K quality by the DJI Mavic Drone.
Morris Leslie Group Logo
ACS Engineering
Scotland's Charity Air Ambulance Logo
Air Service Training Logo

Get started with your first flight lesson with ACS Flight Training

Copyright 2021. ACS Aviation - Website designed by Xtensive